Time;durP1;ratioP1;P1;durP2;ratioP2;P2;SDS_P1;SDS_P2;PMS_P1;PMS_P2;Temp;Humidity;BMP_temperature;BMP_pressure;BME280_temperature;BME280_humidity;BME280_pressure;Samples;Min_cycle;Max_cycle;Signal;HPM_P1;HPM_P2
2021/12/02 00:01:31;;;;;;;;;0.00;0.00;;;;;7.73;75.52;100075.34;5015823;28;45387;-73
2021/12/02 00:03:57;;;;;;;;;0.00;0.00;;;;;7.79;75.72;100087.44;5019865;28;45298;-73
2021/12/02 00:06:23;;;;;;;;;0.00;0.00;;;;;7.70;74.94;100088.59;5020427;28;45301;-73
2021/12/02 00:08:50;;;;;;;;;2.75;0.00;;;;;7.85;75.44;100109.19;5018425;28;45513;-73
2021/12/02 00:11:17;;;;;;;;;2.00;0.00;;;;;7.85;75.71;100108.31;5020680;28;45418;-73
2021/12/02 00:13:56;;;;;;;;;0.00;0.00;;;;;7.84;75.27;100118.00;5015175;28;45598;-72
2021/12/02 00:16:39;;;;;;;;;0.25;0.00;;;;;7.84;75.46;100119.78;5010103;28;45374;-72
2021/12/02 00:21:53;;;;;;;;;0.25;0.25;;;;;7.77;75.43;100126.16;5019893;28;45396;-73
2021/12/02 00:24:20;;;;;;;;;0.00;0.00;;;;;7.73;75.13;100133.28;5018732;28;45655;-73
2021/12/02 00:26:48;;;;;;;;;1.50;0.00;;;;;7.55;74.93;100108.41;5019733;28;46082;-73
2021/12/02 00:29:18;;;;;;;;;1.00;1.00;;;;;7.58;73.08;100120.63;5019510;28;45745;-73
2021/12/02 00:31:47;;;;;;;;;0.00;0.00;;;;;7.58;75.17;100139.03;5013995;28;45406;-73
2021/12/02 00:34:13;;;;;;;;;0.25;0.00;;;;;7.65;74.75;100149.34;5008739;28;45970;-73
2021/12/02 00:36:40;;;;;;;;;0.00;0.00;;;;;7.63;75.49;100164.31;5014202;28;46476;-72
2021/12/02 00:39:10;;;;;;;;;0.50;0.00;;;;;7.62;75.34;100169.66;5019978;28;45557;-72
2021/12/02 00:41:37;;;;;;;;;0.00;0.00;;;;;7.49;75.22;100164.75;5015356;28;45602;-72
2021/12/02 00:44:03;;;;;;;;;0.50;0.50;;;;;7.55;74.34;100182.13;5017881;28;45366;-72
2021/12/02 00:46:32;;;;;;;;;0.00;0.00;;;;;7.43;74.37;100158.81;5018743;28;46532;-73
2021/12/02 00:49:02;;;;;;;;;0.50;0.50;;;;;7.34;75.15;100153.84;5018225;28;45598;-72
2021/12/02 00:51:28;;;;;;;;;1.50;0.25;;;;;7.33;74.35;100139.81;5019786;28;45515;-72
2021/12/02 00:53:55;;;;;;;;;0.00;0.00;;;;;7.43;73.96;100164.06;5019206;28;45469;-72
2021/12/02 00:56:25;;;;;;;;;4.00;0.25;;;;;7.26;73.71;100144.41;5001124;28;45412;-72
2021/12/02 00:58:54;;;;;;;;;3.00;0.00;;;;;7.33;74.30;100149.50;5006437;28;45463;-72
2021/12/02 01:01:23;;;;;;;;;2.00;0.75;;;;;7.27;74.75;100151.38;5005366;28;45465;-72
2021/12/02 01:03:53;;;;;;;;;0.75;0.00;;;;;7.20;75.36;100144.56;5012818;28;45411;-72
2021/12/02 01:06:18;;;;;;;;;2.25;0.00;;;;;7.20;75.16;100144.56;5016791;28;45419;-72
2021/12/02 01:08:44;;;;;;;;;0.25;0.00;;;;;7.21;76.54;100148.94;5015621;28;45510;-72
2021/12/02 01:11:10;;;;;;;;;0.50;0.00;;;;;7.30;76.40;100168.88;5006856;28;45361;-72
2021/12/02 01:13:36;;;;;;;;;1.25;0.75;;;;;6.87;75.84;100103.47;5016226;28;45416;-72
2021/12/02 01:16:02;;;;;;;;;2.25;1.00;;;;;7.17;75.64;100156.97;5008036;28;45600;-72
2021/12/02 01:18:28;;;;;;;;;3.00;2.00;;;;;7.31;75.29;100185.50;5008884;28;45426;-72
2021/12/02 01:20:53;;;;;;;;;0.50;0.50;;;;;7.22;74.96;100160.31;5016376;28;45359;-72
2021/12/02 01:23:23;;;;;;;;;3.00;0.50;;;;;7.37;75.12;100183.56;5016298;28;45566;-72
2021/12/02 01:25:55;;;;;;;;;1.25;0.75;;;;;7.37;75.58;100193.22;5012176;28;46235;-72
2021/12/02 01:28:23;;;;;;;;;2.00;0.00;;;;;7.27;75.53;100176.84;5015730;28;45474;-72
2021/12/02 01:30:50;;;;;;;;;6.50;2.50;;;;;7.11;74.55;100150.09;5016169;28;45560;-72
2021/12/02 01:33:19;;;;;;;;;2.75;2.00;;;;;7.35;74.43;100189.75;5014568;28;45449;-72
2021/12/02 01:35:49;;;;;;;;;3.50;0.00;;;;;7.34;75.50;100188.06;5014517;28;46577;-72
2021/12/02 01:38:15;;;;;;;;;4.00;1.00;;;;;7.30;75.56;100183.81;5015448;28;45884;-72
2021/12/02 01:40:42;;;;;;;;;3.75;1.50;;;;;7.17;73.95;100167.47;5015411;28;45479;-72
2021/12/02 01:43:14;;;;;;;;;3.50;1.75;;;;;7.20;74.34;100175.28;5015899;28;45647;-72
2021/12/02 01:45:40;;;;;;;;;6.75;2.00;;;;;7.23;74.29;100186.59;5015690;28;46598;-72
2021/12/02 01:48:10;;;;;;;;;3.25;1.00;;;;;7.13;74.81;100176.38;5026859;28;45292;-72
2021/12/02 01:50:38;;;;;;;;;1.25;1.00;;;;;7.22;72.39;100200.66;5015982;28;45516;-72
2021/12/02 01:53:05;;;;;;;;;1.25;1.00;;;;;7.13;72.54;100203.56;5012180;28;46570;-72
2021/12/02 01:55:31;;;;;;;;;2.25;0.00;;;;;7.07;72.86;100173.94;5014787;28;45350;-72
2021/12/02 01:58:01;;;;;;;;;1.00;0.00;;;;;7.13;73.01;100193.03;5008182;28;45361;-72
2021/12/02 02:00:43;;;;;;;;;1.00;1.00;;;;;6.95;73.00;100176.00;5012043;28;49544;-72
2021/12/02 02:03:14;;;;;;;;;2.25;1.00;;;;;7.01;72.23;100190.75;5004882;28;45404;-72
2021/12/02 02:05:39;;;;;;;;;4.25;1.00;;;;;7.05;73.43;100195.88;5015632;28;46761;-72
2021/12/02 02:08:17;;;;;;;;;3.50;0.00;;;;;7.02;74.18;100203.84;5014787;28;46494;-72
2021/12/02 02:10:44;;;;;;;;;3.00;0.25;;;;;7.02;73.51;100208.25;5013038;28;45652;-72
2021/12/02 02:13:12;;;;;;;;;3.75;1.00;;;;;6.92;71.47;100209.44;5011149;28;45515;-72
2021/12/02 02:15:40;;;;;;;;;0.75;0.75;;;;;6.93;72.69;100212.00;5009403;28;45483;-72
2021/12/02 02:23:18;;;;;;;;;1.00;1.00;;;;;6.85;72.09;100218.38;5014947;28;45510;-72
2021/12/02 02:25:46;;;;;;;;;1.50;0.00;;;;;6.83;72.18;100232.44;5002222;28;45860;-72
2021/12/02 02:28:13;;;;;;;;;0.50;0.00;;;;;6.81;72.72;100226.34;5013801;28;45546;-72
2021/12/02 02:30:39;;;;;;;;;1.00;0.75;;;;;6.79;72.16;100230.81;5014415;28;45706;-72
2021/12/02 02:33:04;;;;;;;;;0.75;0.00;;;;;6.78;72.23;100236.97;5012654;28;45489;-72
2021/12/02 02:35:30;;;;;;;;;0.00;0.00;;;;;6.65;73.06;100219.81;5019984;28;45579;-72
2021/12/02 02:37:56;;;;;;;;;0.25;0.00;;;;;6.73;72.10;100238.84;5014267;28;45332;-72
2021/12/02 02:40:23;;;;;;;;;0.00;0.00;;;;;6.63;72.91;100224.22;5014836;28;45502;-72
2021/12/02 02:42:56;;;;;;;;;0.00;0.00;;;;;6.61;73.21;100223.38;5015082;28;45481;-72
2021/12/02 02:45:22;;;;;;;;;0.00;0.00;;;;;6.66;73.85;100234.66;5007196;28;45376;-72
2021/12/02 02:47:47;;;;;;;;;0.00;0.00;;;;;6.33;73.91;100170.69;5014971;28;45411;-72
2021/12/02 02:50:15;;;;;;;;;0.00;0.00;;;;;6.73;73.49;100241.47;5013323;28;45393;-72
2021/12/02 02:52:41;;;;;;;;;3.75;0.00;;;;;6.75;73.68;100244.94;5013380;28;45498;-72
2021/12/02 02:55:07;;;;;;;;;0.00;0.00;;;;;6.75;73.82;100246.72;5013968;28;46153;-72
2021/12/02 02:57:44;;;;;;;;;1.00;0.00;;;;;6.59;73.29;100233.97;5013354;28;45573;-72
2021/12/02 03:00:14;;;;;;;;;1.00;0.00;;;;;6.72;73.01;100258.16;5010125;28;45457;-73
2021/12/02 03:05:26;;;;;;;;;2.00;0.00;;;;;6.68;72.80;100264.41;5013921;28;45408;-73
2021/12/02 03:08:12;;;;;;;;;0.00;0.00;;;;;6.67;72.50;100261.81;5005210;28;45487;-73
2021/12/02 03:18:21;;;;;;;;;4.50;0.50;;;;;6.69;72.64;100299.47;5013264;28;45312;-73
2021/12/02 03:20:46;;;;;;;;;0.25;0.25;;;;;6.60;73.00;100285.63;5012398;28;45427;-73
2021/12/02 03:23:12;;;;;;;;;2.00;0.00;;;;;6.61;72.54;100297.00;5013370;28;49660;-73
2021/12/02 03:25:37;;;;;;;;;1.00;0.00;;;;;6.43;73.69;100261.53;5014250;28;46283;-72
2021/12/02 03:28:03;;;;;;;;;1.00;0.50;;;;;6.46;74.30;100269.34;5014097;28;45847;-72
2021/12/02 03:30:29;;;;;;;;;0.00;0.00;;;;;6.54;74.88;100280.53;5011352;28;45616;-73
2021/12/02 03:32:54;;;;;;;;;1.00;0.00;;;;;6.55;74.06;100290.13;5003136;28;45486;-73
2021/12/02 03:35:20;;;;;;;;;2.00;0.50;;;;;6.42;75.16;100258.97;4998110;28;45391;-73
2021/12/02 03:37:45;;;;;;;;;1.75;1.00;;;;;6.53;75.59;100277.94;5014825;28;45519;-73
2021/12/02 03:40:12;;;;;;;;;0.25;0.00;;;;;6.56;74.35;100291.03;5012214;28;45605;-73
2021/12/02 03:42:44;;;;;;;;;1.00;1.00;;;;;6.55;74.67;100292.75;5014131;28;45501;-73
2021/12/02 03:45:09;;;;;;;;;3.75;0.00;;;;;6.40;74.98;100258.97;5013959;28;46180;-73
2021/12/02 03:47:34;;;;;;;;;4.50;1.25;;;;;6.54;74.13;100287.56;5013892;28;45848;-73
2021/12/02 03:50:00;;;;;;;;;4.50;1.25;;;;;6.44;74.99;100267.66;5013991;28;45450;-73
2021/12/02 03:52:25;;;;;;;;;1.75;0.75;;;;;6.28;74.25;100230.38;5012798;28;45509;-73
2021/12/02 03:54:50;;;;;;;;;1.50;1.50;;;;;6.51;72.87;100277.97;5011087;28;46101;-73
2021/12/02 03:57:16;;;;;;;;;1.75;1.50;;;;;6.35;74.83;100260.84;5012620;28;45391;-72
2021/12/02 03:59:41;;;;;;;;;2.00;2.00;;;;;6.18;74.54;100235.00;5025194;28;45350;-73
2021/12/02 04:02:06;;;;;;;;;0.75;0.75;;;;;6.50;73.68;100293.78;4999586;28;45504;-73
2021/12/02 04:04:32;;;;;;;;;3.50;1.50;;;;;6.42;73.46;100280.00;5011897;28;45447;-73
2021/12/02 04:06:57;;;;;;;;;2.25;1.50;;;;;6.07;73.04;100216.84;5013107;28;45605;-73
2021/12/02 04:09:25;;;;;;;;;1.50;0.00;;;;;6.24;73.74;100261.13;5012905;28;45416;-73
2021/12/02 04:12:47;;;;;;;;;4.25;1.00;;;;;6.28;73.70;100272.44;5013725;28;45370;-73
2021/12/02 04:14:51;;;;;;;;;1.00;1.00;;;;;6.40;73.76;100297.53;5000307;28;45956;-73
2021/12/02 04:17:18;;;;;;;;;5.25;3.00;;;;;6.35;74.25;100301.16;5011808;28;45482;-73
2021/12/02 04:19:43;;;;;;;;;3.00;1.00;;;;;6.37;73.97;100293.22;5014511;28;45407;-73
2021/12/02 04:22:09;;;;;;;;;7.00;1.00;;;;;6.40;74.10;100300.19;5013527;28;45375;-73
2021/12/02 04:24:34;;;;;;;;;1.25;1.00;;;;;6.31;74.08;100286.34;5012640;28;45560;-73
2021/12/02 04:27:00;;;;;;;;;4.25;1.00;;;;;6.42;73.52;100301.88;5007131;28;45389;-74
2021/12/02 04:29:25;;;;;;;;;3.50;1.00;;;;;6.21;74.13;100263.84;5006742;28;45222;-73
2021/12/02 04:31:52;;;;;;;;;5.00;1.25;;;;;6.20;74.94;100261.22;5017594;28;45257;-73
2021/12/02 04:34:18;;;;;;;;;0.00;0.00;;;;;6.43;73.16;100294.84;5016085;28;45443;-73
2021/12/02 04:36:43;;;;;;;;;2.00;1.00;;;;;6.43;73.16;100300.97;5017127;28;45558;-73
2021/12/02 04:39:10;;;;;;;;;0.00;0.00;;;;;6.28;72.69;100280.31;5016892;28;45354;-73
2021/12/02 04:41:36;;;;;;;;;1.00;1.00;;;;;6.42;73.82;100311.53;5012805;28;45551;-73
2021/12/02 04:44:02;;;;;;;;;0.00;0.00;;;;;6.36;73.96;100305.50;5016852;28;45632;-73
2021/12/02 04:46:27;;;;;;;;;1.00;1.00;;;;;6.36;72.24;100320.41;5015406;28;45530;-73
2021/12/02 04:48:53;;;;;;;;;0.50;0.50;;;;;6.35;73.25;100313.41;5016772;28;45291;-73
2021/12/02 04:51:18;;;;;;;;;0.25;0.00;;;;;6.22;73.50;100291.81;5014489;28;45699;-73
2021/12/02 04:53:44;;;;;;;;;4.00;1.00;;;;;6.11;72.80;100278.94;5015958;28;45428;-73
2021/12/02 04:56:09;;;;;;;;;2.00;0.00;;;;;6.20;72.60;100290.13;5010958;28;45481;-74
2021/12/02 04:58:35;;;;;;;;;0.75;0.75;;;;;6.25;72.36;100307.53;5017498;28;45379;-74
2021/12/02 05:01:00;;;;;;;;;4.00;1.50;;;;;6.18;72.31;100300.69;5009985;28;45368;-74
2021/12/02 05:03:26;;;;;;;;;1.25;0.00;;;;;6.32;72.13;100324.00;5008191;28;46087;-73
2021/12/02 05:05:51;;;;;;;;;5.00;1.00;;;;;6.19;72.87;100312.06;5016594;28;45474;-74
2021/12/02 05:08:17;;;;;;;;;3.25;1.00;;;;;6.13;72.38;100302.56;5010820;28;45913;-74
2021/12/02 05:10:42;;;;;;;;;1.50;1.50;;;;;6.25;74.11;100325.91;5017052;28;45499;-74
2021/12/02 05:13:07;;;;;;;;;2.00;1.00;;;;;6.05;71.11;100293.97;5016538;28;45601;-74
2021/12/02 05:15:33;;;;;;;;;4.00;0.25;;;;;6.22;73.29;100315.47;5015534;28;45419;-74
2021/12/02 05:17:58;;;;;;;;;0.00;0.00;;;;;6.14;73.17;100305.13;5005694;28;45846;-74
2021/12/02 05:20:23;;;;;;;;;0.75;0.00;;;;;6.14;72.63;100306.91;5015709;28;45328;-74
2021/12/02 05:22:49;;;;;;;;;2.25;1.25;;;;;6.32;73.45;100330.16;5015000;28;46086;-74
2021/12/02 05:25:14;;;;;;;;;2.00;1.00;;;;;6.27;73.62;100326.75;5015794;28;45447;-74
2021/12/02 05:27:40;;;;;;;;;0.25;0.25;;;;;6.25;72.33;100335.56;5016389;28;45620;-74
2021/12/02 05:30:06;;;;;;;;;3.25;1.00;;;;;6.30;72.32;100336.34;5012625;28;45498;-74
2021/12/02 05:32:31;;;;;;;;;2.00;0.75;;;;;6.10;71.59;100307.88;5009212;28;47012;-74
2021/12/02 05:34:58;;;;;;;;;4.00;1.00;;;;;6.25;71.97;100346.94;5001684;28;46529;-74
2021/12/02 05:37:24;;;;;;;;;2.25;1.00;;;;;6.19;72.31;100341.81;5016066;28;45605;-73
2021/12/02 05:39:49;;;;;;;;;3.50;0.75;;;;;6.10;73.73;100305.25;5014844;28;45511;-73
2021/12/02 05:42:15;;;;;;;;;11.25;1.00;;;;;6.16;72.37;100320.88;5015035;28;46082;-73
2021/12/02 05:44:40;;;;;;;;;4.75;1.00;;;;;6.27;72.28;100341.66;5015719;28;45308;-73
2021/12/02 05:47:06;;;;;;;;;2.25;2.00;;;;;5.98;70.55;100295.88;5015747;28;45345;-73
2021/12/02 05:49:31;;;;;;;;;1.75;1.00;;;;;6.24;72.07;100336.47;5015893;28;45312;-73
2021/12/02 05:51:57;;;;;;;;;2.50;2.00;;;;;6.08;71.02;100301.78;5015726;28;47892;-74
2021/12/02 05:54:22;;;;;;;;;3.25;1.00;;;;;6.13;70.59;100334.09;5015546;28;45382;-73
2021/12/02 05:56:48;;;;;;;;;3.75;1.00;;;;;6.10;70.64;100337.63;5015718;28;45355;-74
2021/12/02 05:59:13;;;;;;;;;2.50;1.00;;;;;6.07;71.65;100334.22;5015907;28;45308;-73
2021/12/02 06:01:42;;;;;;;;;1.50;1.00;;;;;6.17;71.38;100343.63;5015787;28;46363;-73
2021/12/02 06:04:09;;;;;;;;;0.50;0.50;;;;;6.16;71.33;100347.16;5015210;28;45352;-73
2021/12/02 06:06:34;;;;;;;;;2.00;1.00;;;;;6.13;71.38;100350.72;5015451;28;45558;-73
2021/12/02 06:08:59;;;;;;;;;0.00;0.00;;;;;6.14;71.21;100344.53;5015313;28;45458;-73
2021/12/02 06:11:25;;;;;;;;;4.50;1.75;;;;;6.12;70.60;100348.13;5015287;28;46021;-73
2021/12/02 06:13:50;;;;;;;;;3.50;1.00;;;;;6.06;70.79;100336.00;5011201;28;45562;-73
2021/12/02 06:16:15;;;;;;;;;4.00;1.50;;;;;6.11;69.94;100351.63;5013844;28;45428;-75
2021/12/02 06:18:41;;;;;;;;;2.00;0.25;;;;;5.84;69.27;100311.91;5015275;28;45367;-74
2021/12/02 06:21:06;;;;;;;;;2.25;1.25;;;;;6.07;70.39;100357.88;5019430;28;46320;-74
2021/12/02 06:23:32;;;;;;;;;1.00;1.00;;;;;5.94;70.33;100328.34;5015297;28;45482;-74
2021/12/02 06:25:57;;;;;;;;;3.25;1.00;;;;;6.08;70.67;100354.31;5011491;28;45421;-74
2021/12/02 06:28:23;;;;;;;;;6.00;1.00;;;;;6.06;68.49;100349.13;5011006;28;45601;-74
2021/12/02 06:30:49;;;;;;;;;6.00;0.50;;;;;6.06;69.22;100356.13;5010690;28;45594;-74
2021/12/02 06:33:14;;;;;;;;;5.50;2.00;;;;;6.05;68.80;100357.88;5015162;28;45518;-74
2021/12/02 06:35:40;;;;;;;;;9.25;1.50;;;;;6.01;69.86;100358.00;5013094;28;45550;-74
2021/12/02 06:38:06;;;;;;;;;0.75;0.75;;;;;5.67;69.42;100314.88;5015092;28;45343;-74
2021/12/02 06:40:34;;;;;;;;;0.25;0.25;;;;;5.83;68.39;100340.84;5015384;28;46310;-74
2021/12/02 06:43:00;;;;;;;;;1.25;1.25;;;;;5.72;69.19;100341.06;5015000;28;45585;-74
2021/12/02 06:45:26;;;;;;;;;1.75;1.75;;;;;5.57;69.75;100326.47;5013601;28;45194;-74
2021/12/02 06:47:53;;;;;;;;;6.25;1.00;;;;;5.85;70.04;100373.16;5014328;28;45474;-73
2021/12/02 06:50:20;;;;;;;;;5.00;1.00;;;;;5.67;70.44;100361.28;5011266;28;46027;-73
2021/12/02 06:52:47;;;;;;;;;2.50;0.75;;;;;5.74;69.56;100364.66;5012904;28;45763;-73
2021/12/02 06:55:14;;;;;;;;;1.75;1.75;;;;;5.84;70.66;100377.56;5011205;28;45420;-73
2021/12/02 06:57:39;;;;;;;;;1.75;1.00;;;;;5.80;69.88;100386.41;5014781;28;45517;-73
2021/12/02 07:00:08;;;;;;;;;3.00;1.75;;;;;5.80;70.65;100382.94;5014075;28;46464;-73
2021/12/02 07:02:35;;;;;;;;;1.00;1.00;;;;;5.69;71.55;100368.22;5014596;28;45490;-73
2021/12/02 07:05:01;;;;;;;;;4.00;2.50;;;;;5.84;69.85;100389.84;5014878;28;45537;-74
2021/12/02 07:07:31;;;;;;;;;4.00;2.75;;;;;5.79;69.88;100387.28;5010194;28;45522;-73
2021/12/02 07:09:56;;;;;;;;;1.50;1.00;;;;;5.82;70.92;100392.47;5010225;28;45504;-73
2021/12/02 07:12:29;;;;;;;;;9.25;5.75;;;;;5.80;68.69;100396.91;5004756;28;45501;-74
2021/12/02 07:14:54;;;;;;;;;2.00;1.75;;;;;5.68;70.71;100387.53;5034719;28;45332;-76
2021/12/02 07:17:19;;;;;;;;;9.25;1.00;;;;;5.59;70.06;100368.44;5014425;28;47672;-74
2021/12/02 07:19:45;;;;;;;;;6.50;1.25;;;;;5.77;70.05;100396.97;5014740;28;46012;-73
2021/12/02 07:22:10;;;;;;;;;2.00;1.00;;;;;5.72;69.94;100392.72;5014084;28;45562;-72
2021/12/02 07:24:35;;;;;;;;;94.67;74.00;;;;;5.78;70.26;100401.31;5010586;28;45431;-73
2021/12/02 07:27:01;;;;;;;;;0.00;0.00;;;;;5.83;70.92;100403.88;5012591;28;45464;-72
2021/12/02 07:29:26;;;;;;;;;3.75;1.00;;;;;5.70;69.52;100382.22;5013100;28;46048;-72
2021/12/02 07:31:52;;;;;;;;;2.50;1.25;;;;;5.85;70.58;100413.44;5001162;28;45276;-73
2021/12/02 07:34:23;;;;;;;;;4.00;1.00;;;;;5.73;70.57;100386.56;5014645;28;45371;-73
2021/12/02 07:36:49;;;;;;;;;6.75;2.75;;;;;5.84;68.97;100409.06;5014110;28;45430;-73
2021/12/02 07:39:15;;;;;;;;;3.00;1.50;;;;;5.86;69.20;100402.03;5008226;28;46485;-71
2021/12/02 07:41:42;;;;;;;;;1.75;1.00;;;;;5.79;69.54;100397.78;5013526;28;45764;-73
2021/12/02 07:44:07;;;;;;;;;2.75;1.00;;;;;5.73;68.84;100390.03;5005566;28;45902;-73
2021/12/02 07:46:33;;;;;;;;;5.00;1.00;;;;;5.66;69.63;100376.19;5008727;28;45347;-73
2021/12/02 07:48:59;;;;;;;;;1.00;1.00;;;;;5.90;67.28;100419.44;5006407;28;48480;-73
2021/12/02 07:51:29;;;;;;;;;4.25;1.75;;;;;5.66;68.22;100383.19;5002278;28;45504;-73
2021/12/02 07:53:57;;;;;;;;;2.00;2.00;;;;;5.69;68.07;100391.00;5007207;28;45410;-73
2021/12/02 07:56:23;;;;;;;;;2.00;2.00;;;;;5.90;69.24;100426.47;5005729;28;45509;-73
2021/12/02 07:58:49;;;;;;;;;2.75;0.00;;;;;5.88;67.13;100423.00;5023354;28;47194;-73
2021/12/02 08:01:17;;;;;;;;;7.25;1.00;;;;;5.78;68.67;100413.59;5007016;28;45398;-73
2021/12/02 08:03:44;;;;;;;;;2.75;1.25;;;;;5.88;67.46;100433.50;4997459;28;45494;-73
2021/12/02 08:06:11;;;;;;;;;0.50;0.00;;;;;5.76;66.97;100418.84;5002923;28;45434;-73
2021/12/02 08:08:40;;;;;;;;;4.00;0.00;;;;;5.65;68.82;100405.09;5011131;28;46139;-73
2021/12/02 08:11:07;;;;;;;;;4.00;1.00;;;;;5.69;67.37;100406.75;5000614;28;49256;-73
2021/12/02 08:13:33;;;;;;;;;2.00;0.00;;;;;5.78;66.78;100430.22;5012034;28;45411;-73
2021/12/02 08:15:58;;;;;;;;;2.00;1.00;;;;;5.78;66.91;100430.22;5009499;28;45355;-73
2021/12/02 08:18:24;;;;;;;;;3.25;0.50;;;;;5.60;67.93;100410.44;5025373;28;47057;-73
2021/12/02 08:20:49;;;;;;;;;3.50;0.00;;;;;5.61;66.45;100419.16;5012609;28;51087;-73
2021/12/02 08:23:15;;;;;;;;;0.75;0.75;;;;;5.73;67.99;100439.94;4997812;28;46144;-73
2021/12/02 08:25:41;;;;;;;;;3.00;0.75;;;;;5.73;66.41;100450.44;5010295;28;45401;-74
2021/12/02 08:28:06;;;;;;;;;1.00;1.00;;;;;5.64;66.79;100434.84;5001793;28;45804;-73
2021/12/02 08:30:34;;;;;;;;;2.00;1.00;;;;;5.70;65.44;100445.22;5001387;28;45380;-72
2021/12/02 08:33:01;;;;;;;;;3.00;0.00;;;;;5.69;65.75;100443.53;5002020;28;45805;-73
2021/12/02 08:35:28;;;;;;;;;1.50;0.00;;;;;5.62;67.26;100450.66;4998818;28;45954;-72
2021/12/02 08:37:59;;;;;;;;;1.25;1.00;;;;;5.68;67.36;100458.41;4996405;28;45482;-73
2021/12/02 08:40:35;;;;;;;;;1.00;1.00;;;;;5.29;65.96;100391.75;5009072;28;45616;-73
2021/12/02 08:43:03;;;;;;;;;3.75;2.00;;;;;5.63;66.81;100443.63;5000571;28;45372;-73
2021/12/02 08:45:29;;;;;;;;;1.75;1.00;;;;;5.67;67.27;100466.31;5002174;28;45324;-74
2021/12/02 08:47:56;;;;;;;;;1.00;1.00;;;;;5.61;66.27;100451.53;5001394;28;45417;-74
2021/12/02 08:50:22;;;;;;;;;4.00;1.00;;;;;5.72;65.36;100469.72;5013919;28;45364;-74
2021/12/02 08:52:50;;;;;;;;;3.00;1.00;;;;;5.75;65.21;100464.41;5001222;28;45345;-74
2021/12/02 08:55:18;;;;;;;;;3.00;1.00;;;;;5.62;67.74;100453.28;4998461;28;45459;-74
2021/12/02 08:57:48;;;;;;;;;11.25;2.75;;;;;5.72;66.90;100464.47;5005414;28;47636;-74
2021/12/02 09:00:16;;;;;;;;;4.00;2.00;;;;;5.80;68.51;100473.06;5005648;28;45487;-73
2021/12/02 09:02:42;;;;;;;;;3.00;2.00;;;;;5.75;68.91;100461.78;5012802;28;45455;-73
2021/12/02 09:05:08;;;;;;;;;3.00;3.00;;;;;5.76;66.64;100470.50;4997380;28;45559;-74
2021/12/02 09:07:34;;;;;;;;;2.75;1.00;;;;;5.82;65.52;100473.88;5001171;28;46847;-73
2021/12/02 09:09:59;;;;;;;;;2.50;1.25;;;;;5.81;65.34;100477.41;5005772;28;45469;-73
2021/12/02 09:12:25;;;;;;;;;1.75;1.00;;;;;5.73;66.52;100462.69;5008870;28;45329;-71
2021/12/02 09:14:51;;;;;;;;;6.50;1.75;;;;;5.77;67.19;100469.63;5004123;28;45466;-74
2021/12/02 09:17:18;;;;;;;;;6.25;1.75;;;;;5.77;66.06;100470.50;4997177;28;46018;-74
2021/12/02 09:19:43;;;;;;;;;6.50;1.50;;;;;5.88;67.11;100480.78;4999480;28;45589;-73
2021/12/02 09:22:08;;;;;;;;;5.50;1.00;;;;;5.98;67.74;100479.75;5002892;28;45401;-72
2021/12/02 09:24:36;;;;;;;;;3.00;1.50;;;;;5.99;67.88;100468.34;5000702;28;45818;-73
2021/12/02 09:27:02;;;;;;;;;2.00;2.00;;;;;6.16;67.94;100485.56;5004473;28;45555;-73
2021/12/02 09:29:28;;;;;;;;;2.00;1.00;;;;;6.16;65.41;100485.56;4997402;28;45356;-72
2021/12/02 09:31:54;;;;;;;;;5.25;1.75;;;;;5.99;66.71;100459.59;4999958;28;45441;-73
2021/12/02 09:34:19;;;;;;;;;0.00;0.00;;;;;6.18;67.96;100489.00;5005498;28;45550;-73
2021/12/02 09:36:46;;;;;;;;;0.50;0.00;;;;;6.18;66.10;100491.63;5005483;28;46057;-73
2021/12/02 09:39:13;;;;;;;;;2.50;0.25;;;;;5.95;65.20;100461.44;5000770;28;45364;-74
2021/12/02 09:41:41;;;;;;;;;2.75;0.00;;;;;6.08;63.85;100489.19;4998868;28;45528;-74
2021/12/02 09:44:07;;;;;;;;;7.25;1.25;;;;;6.04;65.40;100484.03;4998113;28;45493;-74
2021/12/02 09:46:33;;;;;;;;;1.75;1.75;;;;;6.03;65.78;100492.78;5006879;28;46074;-73
2021/12/02 09:49:02;;;;;;;;;6.00;1.00;;;;;6.09;66.62;100501.44;5003459;28;45455;-73
2021/12/02 09:51:35;;;;;;;;;2.50;2.50;;;;;6.12;65.63;100500.50;5001934;28;45501;-73
2021/12/02 09:54:26;;;;;;;;;2.00;0.75;;;;;6.05;65.86;100486.59;4997001;28;45414;-73
2021/12/02 09:56:49;;;;;;;;;2.00;1.00;;;;;6.16;64.38;100501.31;5010181;28;45506;-73
2021/12/02 10:02:00;;;;;;;;;3.00;0.25;;;;;5.96;66.28;100451.78;5015675;28;45499;-73
2021/12/02 10:04:27;;;;;;;;;2.50;1.00;;;;;6.09;65.15;100471.69;5010112;28;45454;-73
2021/12/02 10:07:04;;;;;;;;;3.50;2.00;;;;;6.23;64.95;100500.28;5012728;28;48084;-73
2021/12/02 10:09:41;;;;;;;;;2.25;0.00;;;;;6.17;65.59;100485.50;5004802;28;45320;-73
2021/12/02 10:12:15;;;;;;;;;2.25;0.75;;;;;6.17;64.65;100489.91;5010269;28;45427;-73
2021/12/02 10:14:48;;;;;;;;;2.00;1.00;;;;;6.20;65.29;100493.31;5001896;28;45806;-73
2021/12/02 10:23:06;;;;;;;;;1.25;1.25;;;;;6.28;66.19;100508.94;5007990;28;45639;-73
2021/12/02 10:25:34;;;;;;;;;3.50;0.50;;;;;6.28;64.69;100520.31;5007241;28;45527;-73
2021/12/02 10:28:04;;;;;;;;;4.00;1.00;;;;;6.12;65.94;100477.72;5009640;28;46907;-73
2021/12/02 10:30:30;;;;;;;;;7.00;2.25;;;;;6.30;64.85;100526.41;5006147;28;45439;-74
2021/12/02 10:32:55;;;;;;;;;1.25;1.25;;;;;6.28;66.11;100509.81;4997404;28;45365;-74
2021/12/02 10:35:43;;;;;;;;;2.75;1.75;;;;;6.06;64.17;100467.34;5001591;28;45384;-74
2021/12/02 10:38:35;;;;;;;;;2.75;0.75;;;;;6.27;65.29;100504.59;5007266;28;45494;-74
2021/12/02 10:41:12;;;;;;;;;1.00;1.00;;;;;6.29;65.56;100508.91;5009038;28;45388;-74
2021/12/02 10:44:01;;;;;;;;;2.50;0.75;;;;;6.29;64.69;100506.28;5006483;28;45543;-74
2021/12/02 10:46:26;;;;;;;;;1.75;0.25;;;;;6.30;66.37;100508.03;5008280;28;45779;-74
2021/12/02 10:48:53;;;;;;;;;3.75;1.00;;;;;6.30;64.92;100515.06;5006534;28;46529;-73
2021/12/02 10:51:38;;;;;;;;;3.00;1.50;;;;;6.24;66.23;100487.13;5001685;28;45400;-73
2021/12/02 10:54:08;;;;;;;;;3.50;2.50;;;;;6.30;67.15;100510.66;5006535;28;45478;-74
2021/12/02 10:56:36;;;;;;;;;3.00;2.00;;;;;6.33;66.48;100504.47;5009982;28;45479;-72
2021/12/02 10:59:26;;;;;;;;;2.50;1.00;;;;;6.32;66.97;100505.34;5010721;28;46142;-73
2021/12/02 11:01:54;;;;;;;;;13.25;2.50;;;;;6.36;66.53;100501.78;5005580;28;45510;-73
2021/12/02 11:04:20;;;;;;;;;2.00;2.00;;;;;6.29;67.25;100492.28;5004977;28;45645;-72
2021/12/02 11:06:47;;;;;;;;;3.75;1.25;;;;;6.14;66.72;100473.28;5003252;28;45510;-72
2021/12/02 11:09:34;;;;;;;;;3.00;1.50;;;;;6.32;65.92;100497.47;4999689;28;46131;-73
2021/12/02 11:12:14;;;;;;;;;1.75;1.75;;;;;6.35;67.18;100506.19;5019985;28;45494;-73
2021/12/02 11:14:52;;;;;;;;;6.25;0.75;;;;;6.23;64.67;100484.50;5000437;28;45540;-73
2021/12/02 11:17:18;;;;;;;;;3.00;1.25;;;;;6.14;65.76;100488.19;5008666;28;45679;-73
2021/12/02 11:19:46;;;;;;;;;2.00;2.00;;;;;6.15;66.08;100487.31;5013693;28;47123;-73
2021/12/02 11:22:16;;;;;;;;;1.00;1.00;;;;;6.13;67.88;100478.59;5001653;28;45438;-73
2021/12/02 11:24:42;;;;;;;;;3.25;1.00;;;;;6.28;66.20;100499.28;5002783;28;45550;-73
2021/12/02 11:27:39;;;;;;;;;4.00;1.00;;;;;6.32;67.88;100514.13;5003852;28;48705;-73
2021/12/02 11:30:20;;;;;;;;;2.50;2.00;;;;;6.34;67.33;100516.72;5009527;28;45836;-74
2021/12/02 11:33:07;;;;;;;;;1.00;0.75;;;;;6.31;68.49;100515.00;5000572;28;45423;-74
2021/12/02 11:35:35;;;;;;;;;2.00;1.00;;;;;6.31;67.96;100509.75;5014152;28;45587;-75
2021/12/02 11:38:21;;;;;;;;;1.75;1.75;;;;;6.29;68.50;100493.13;5007433;28;45245;-73
2021/12/02 11:40:56;;;;;;;;;2.75;0.00;;;;;6.39;69.36;100512.22;5006544;28;46601;-74
2021/12/02 11:43:27;;;;;;;;;1.50;1.25;;;;;6.47;68.06;100506.78;5011986;28;46101;-73
2021/12/02 11:45:55;;;;;;;;;2.00;2.00;;;;;6.59;69.70;100512.69;5000143;28;45376;-74
2021/12/02 11:48:26;;;;;;;;;6.00;1.00;;;;;6.69;70.99;100494.06;4999436;28;45540;-73
2021/12/02 11:50:55;;;;;;;;;6.25;3.00;;;;;6.77;69.95;100487.72;4998480;28;45541;-73
2021/12/02 11:53:21;;;;;;;;;1.00;1.00;;;;;6.98;68.14;100510.06;4995166;28;45761;-73
2021/12/02 11:55:51;;;;;;;;;6.00;1.75;;;;;7.03;68.71;100512.59;4998794;28;45485;-73
2021/12/02 11:58:17;;;;;;;;;3.50;1.00;;;;;7.01;69.07;100515.25;4999130;28;45533;-73
2021/12/02 12:00:44;;;;;;;;;8.00;2.00;;;;;7.06;68.37;100517.78;4999251;28;45589;-73
2021/12/02 12:03:32;;;;;;;;;3.00;1.00;;;;;6.87;69.34;100488.38;4998402;28;45521;-73
2021/12/02 12:06:06;;;;;;;;;3.00;1.25;;;;;6.89;68.78;100489.22;4995999;28;45415;-73